createdAt,value
2022-10-01T00:02:07.971Z,44.00
2022-10-01T00:04:39.657Z,44.38
2022-10-01T00:07:10.989Z,43.42
2022-10-01T00:09:39.240Z,44.30
2022-10-01T00:12:07.927Z,45.97
2022-10-01T00:14:38.502Z,42.45
2022-10-01T00:17:06.580Z,45.20
2022-10-01T00:19:34.339Z,46.97
2022-10-01T00:22:02.381Z,45.63
2022-10-01T00:24:30.279Z,44.22
2022-10-01T00:26:58.018Z,42.45
2022-10-01T00:29:25.799Z,45.13
2022-10-01T00:31:53.948Z,46.85
2022-10-01T00:34:21.781Z,45.80
2022-10-01T00:36:49.538Z,46.00
2022-10-01T00:39:17.512Z,45.70
2022-10-01T00:41:45.184Z,44.42
2022-10-01T00:44:36.405Z,43.85
2022-10-01T00:47:31.809Z,42.13
2022-10-01T00:50:08.782Z,42.58
2022-10-01T00:52:40.769Z,43.92
2022-10-01T00:55:18.837Z,46.13
2022-10-01T00:57:47.137Z,45.92
2022-10-01T01:00:15.511Z,48.28
2022-10-01T01:02:43.840Z,47.08
2022-10-01T01:05:13.412Z,46.40
2022-10-01T01:07:45.616Z,47.33
2022-10-01T01:10:29.963Z,46.80
2022-10-01T01:13:11.582Z,44.47
2022-10-01T01:15:51.267Z,44.17
2022-10-01T01:18:34.469Z,42.08
2022-10-01T01:21:19.731Z,44.47
2022-10-01T01:24:08.443Z,42.58
2022-10-01T01:27:29.131Z,42.30
2022-10-01T01:30:18.086Z,41.05
2022-10-01T01:33:04.832Z,40.35
2022-10-01T01:35:44.137Z,40.40
2022-10-01T01:38:15.883Z,41.90
2022-10-01T01:40:47.517Z,39.17
2022-10-01T01:43:20.576Z,39.92
2022-10-01T01:45:52.622Z,39.22
2022-10-01T01:48:22.593Z,39.60
2022-10-01T01:51:06.425Z,38.78
2022-10-01T01:53:35.776Z,39.25
2022-10-01T01:56:04.933Z,41.72
2022-10-01T01:58:35.055Z,39.92
2022-10-01T02:01:04.299Z,39.45
2022-10-01T02:03:35.311Z,40.70
2022-10-01T02:06:27.215Z,42.00
2022-10-01T02:09:18.136Z,40.17
2022-10-01T02:12:00.942Z,39.83
2022-10-01T02:15:05.477Z,40.92
2022-10-01T02:17:46.538Z,38.53
2022-10-01T02:20:24.013Z,38.65
2022-10-01T02:22:59.366Z,40.45
2022-10-01T02:25:34.644Z,41.28
2022-10-01T02:28:08.680Z,41.47
2022-10-01T02:30:39.491Z,44.22
2022-10-01T02:33:09.860Z,46.47
2022-10-01T02:35:38.961Z,46.40
2022-10-01T02:38:09.581Z,43.88
2022-10-01T02:40:42.310Z,44.30
2022-10-01T02:43:18.984Z,44.22
2022-10-01T02:45:51.829Z,40.75
2022-10-01T02:48:20.006Z,42.35
2022-10-01T02:50:56.055Z,40.67
2022-10-01T02:53:31.394Z,39.47
2022-10-01T02:56:02.111Z,39.22
2022-10-01T02:58:30.349Z,37.13
2022-10-01T03:00:58.187Z,38.55
2022-10-01T03:03:26.204Z,38.22
2022-10-01T03:05:54.148Z,37.55
2022-10-01T03:08:21.894Z,38.78
2022-10-01T03:10:50.555Z,38.90
2022-10-01T03:13:19.806Z,39.80
2022-10-01T03:15:47.709Z,38.70
2022-10-01T03:18:15.452Z,40.30
2022-10-01T03:20:43.465Z,38.42
2022-10-01T03:23:11.243Z,38.75
2022-10-01T03:25:39.102Z,39.25
2022-10-01T03:28:06.989Z,37.50
2022-10-01T03:30:34.853Z,39.03
2022-10-01T03:33:02.598Z,37.47
2022-10-01T03:35:32.291Z,40.17
2022-10-01T03:38:00.021Z,39.85
2022-10-01T03:40:27.723Z,39.63
2022-10-01T03:42:55.812Z,38.55
2022-10-01T03:45:23.656Z,38.17
2022-10-01T03:47:54.521Z,40.20
2022-10-01T03:50:22.464Z,39.35
2022-10-01T03:52:51.372Z,39.92
2022-10-01T03:55:19.434Z,39.60
2022-10-01T03:57:47.569Z,38.70
2022-10-01T04:00:15.341Z,39.75
2022-10-01T04:02:43.364Z,41.03
2022-10-01T04:05:12.394Z,41.95
2022-10-01T04:07:41.616Z,40.20
2022-10-01T04:10:09.622Z,38.05
2022-10-01T04:12:37.548Z,41.20
2022-10-01T04:15:05.469Z,41.67
2022-10-01T04:17:33.589Z,41.67
2022-10-01T04:20:01.931Z,41.28
2022-10-01T04:22:29.990Z,41.42
2022-10-01T04:24:57.721Z,40.67
2022-10-01T04:27:26.351Z,40.40
2022-10-01T04:29:54.013Z,39.33
2022-10-01T04:32:22.254Z,41.10
2022-10-01T04:34:53.436Z,40.35
2022-10-01T04:37:22.454Z,39.88
2022-10-01T04:39:50.690Z,40.53
2022-10-01T04:42:18.693Z,40.50
2022-10-01T04:44:46.402Z,38.80
2022-10-01T04:47:14.161Z,38.42
2022-10-01T04:49:42.113Z,39.30
2022-10-01T04:52:09.814Z,39.90
2022-10-01T04:54:37.508Z,41.65
2022-10-01T04:57:05.577Z,38.92
2022-10-01T04:59:33.798Z,43.60
2022-10-01T05:02:01.574Z,56.40
2022-10-01T05:04:29.529Z,52.47
2022-10-01T05:06:57.232Z,47.47
2022-10-01T05:09:25.052Z,46.22
2022-10-01T05:11:53.063Z,46.70
2022-10-01T05:14:21.995Z,45.38
2022-10-01T05:16:50.232Z,45.45
2022-10-01T05:19:18.386Z,46.97
2022-10-01T05:21:46.256Z,46.35
2022-10-01T05:24:14.308Z,45.22
2022-10-01T05:26:42.188Z,44.50
2022-10-01T05:29:10.119Z,44.90
2022-10-01T05:31:38.402Z,44.67
2022-10-01T05:34:06.786Z,43.95
2022-10-01T05:36:34.533Z,42.35
2022-10-01T05:39:04.825Z,40.05
2022-10-01T05:41:33.067Z,40.08
2022-10-01T05:44:02.957Z,39.33
2022-10-01T05:46:32.027Z,37.65
2022-10-01T05:49:00.180Z,38.80
2022-10-01T05:51:28.359Z,38.45
2022-10-01T05:53:59.107Z,38.10
2022-10-01T05:56:27.163Z,38.80
2022-10-01T05:58:55.155Z,37.90
2022-10-01T06:01:22.925Z,40.65
2022-10-01T06:03:54.004Z,39.70
2022-10-01T06:06:28.248Z,40.17
2022-10-01T06:08:56.275Z,39.42
2022-10-01T06:11:24.983Z,40.28
2022-10-01T06:13:53.089Z,39.55
2022-10-01T06:16:21.373Z,40.90
2022-10-01T06:18:49.678Z,39.05
2022-10-01T06:21:17.402Z,39.55
2022-10-01T06:23:45.845Z,39.63
2022-10-01T06:26:13.475Z,39.05
2022-10-01T06:28:41.467Z,40.58
2022-10-01T06:31:09.451Z,38.80
2022-10-01T06:33:37.550Z,39.05
2022-10-01T06:36:05.594Z,38.28
2022-10-01T06:38:33.620Z,38.95
2022-10-01T06:41:04.388Z,37.92
2022-10-01T06:43:33.210Z,37.42
2022-10-01T06:46:05.437Z,38.67
2022-10-01T06:48:36.575Z,36.80
2022-10-01T06:51:05.853Z,36.42
2022-10-01T06:53:33.745Z,37.47
2022-10-01T06:56:06.770Z,38.53
2022-10-01T06:58:35.020Z,35.45
2022-10-01T07:01:04.046Z,35.22
2022-10-01T07:03:32.260Z,34.50
2022-10-01T07:06:04.478Z,33.35
2022-10-01T07:08:33.425Z,33.08
2022-10-01T07:11:02.866Z,32.08
2022-10-01T07:13:30.846Z,31.63
2022-10-01T07:15:58.592Z,29.98
2022-10-01T07:18:27.058Z,29.60
2022-10-01T07:20:57.550Z,31.30
2022-10-01T07:23:25.489Z,31.85
2022-10-01T07:25:53.591Z,30.35
2022-10-01T07:28:25.653Z,29.80
2022-10-01T07:31:06.708Z,29.83
2022-10-01T07:33:35.456Z,28.50
2022-10-01T07:36:06.069Z,28.58
2022-10-01T07:38:34.181Z,28.85
2022-10-01T07:41:03.526Z,27.17
2022-10-01T07:43:33.308Z,25.95
2022-10-01T07:46:03.548Z,26.55
2022-10-01T07:48:31.704Z,26.60
2022-10-01T07:50:59.612Z,24.85
2022-10-01T07:53:28.280Z,26.40
2022-10-01T07:55:56.855Z,24.23
2022-10-01T07:58:24.864Z,25.13
2022-10-01T08:00:58.255Z,23.88
2022-10-01T08:03:26.769Z,23.77
2022-10-01T08:05:54.706Z,23.33
2022-10-01T08:08:22.808Z,24.50
2022-10-01T08:10:50.950Z,21.77
2022-10-01T08:13:19.153Z,22.60
2022-10-01T08:15:53.666Z,22.60
2022-10-01T08:18:23.805Z,21.95
2022-10-01T08:20:52.630Z,22.13
2022-10-01T08:23:21.619Z,22.60
2022-10-01T08:25:49.281Z,20.75
2022-10-01T08:28:17.282Z,19.42
2022-10-01T08:30:45.524Z,18.85
2022-10-01T08:33:14.298Z,18.58
2022-10-01T08:35:43.693Z,18.55
2022-10-01T08:38:12.907Z,18.42
2022-10-01T08:40:50.664Z,19.40
2022-10-01T08:43:31.427Z,18.10
2022-10-01T08:46:13.778Z,17.95
2022-10-01T08:48:56.807Z,17.20
2022-10-01T08:51:32.758Z,18.27
2022-10-01T08:54:39.885Z,16.98
2022-10-01T08:57:17.593Z,16.25
2022-10-01T08:59:47.325Z,16.80
2022-10-01T09:02:27.597Z,17.08
2022-10-01T09:05:01.781Z,17.35
2022-10-01T09:07:41.958Z,17.45
2022-10-01T09:10:21.904Z,18.35
2022-10-01T09:13:14.053Z,17.67
2022-10-01T09:15:53.887Z,14.73
2022-10-01T09:18:43.060Z,15.88
2022-10-01T09:21:25.323Z,13.60
2022-10-01T09:24:11.997Z,12.65
2022-10-01T09:26:46.690Z,13.32
2022-10-01T09:29:23.926Z,13.90
2022-10-01T09:31:54.005Z,12.73
2022-10-01T09:34:37.340Z,12.98
2022-10-01T09:37:14.806Z,12.30
2022-10-01T09:40:00.382Z,12.25
2022-10-01T09:42:30.327Z,13.70
2022-10-01T09:44:58.649Z,14.07
2022-10-01T09:47:26.904Z,14.00
2022-10-01T09:49:55.256Z,14.10
2022-10-01T09:52:33.622Z,14.60
2022-10-01T09:55:26.781Z,15.10
2022-10-01T09:58:01.725Z,14.82
2022-10-01T10:00:29.809Z,14.75
2022-10-01T10:02:57.699Z,15.40
2022-10-01T10:05:28.159Z,14.30
2022-10-01T10:08:10.571Z,15.48
2022-10-01T10:10:40.529Z,14.57
2022-10-01T10:13:11.973Z,15.10
2022-10-01T10:15:51.403Z,15.93
2022-10-01T10:18:29.624Z,15.02
2022-10-01T10:20:59.354Z,14.00
2022-10-01T10:23:29.394Z,13.98
2022-10-01T10:26:05.081Z,14.13
2022-10-01T10:28:48.212Z,12.43
2022-10-01T10:31:16.120Z,11.82
2022-10-01T10:33:53.592Z,12.10
2022-10-01T10:36:28.983Z,12.48
2022-10-01T10:38:58.451Z,14.43
2022-10-01T10:41:29.076Z,14.52
2022-10-01T10:44:07.904Z,13.45
2022-10-01T10:46:42.757Z,13.90
2022-10-01T10:49:47.266Z,14.48
2022-10-01T10:52:30.369Z,12.65
2022-10-01T10:55:00.365Z,13.35
2022-10-01T10:57:34.318Z,12.88
2022-10-01T11:00:12.505Z,13.60
2022-10-01T11:02:49.033Z,13.43
2022-10-01T11:05:23.804Z,13.82
2022-10-01T11:07:56.453Z,14.30
2022-10-01T11:10:40.517Z,14.23
2022-10-01T11:13:18.601Z,14.90
2022-10-01T11:16:01.387Z,14.82
2022-10-01T11:18:36.010Z,14.25
2022-10-01T11:21:25.532Z,15.20
2022-10-01T11:24:15.134Z,13.82
2022-10-01T11:27:10.490Z,13.77
2022-10-01T11:30:11.957Z,14.00
2022-10-01T11:33:00.733Z,13.98
2022-10-01T11:35:42.331Z,14.07
2022-10-01T11:38:24.794Z,12.82
2022-10-01T11:40:59.797Z,12.45
2022-10-01T11:44:06.775Z,12.00
2022-10-01T11:47:04.582Z,11.93
2022-10-01T11:49:54.981Z,12.43
2022-10-01T11:52:33.873Z,11.93
2022-10-01T11:55:46.772Z,10.73
2022-10-01T11:58:37.414Z,9.82
2022-10-01T12:01:14.307Z,10.63
2022-10-01T12:04:02.205Z,11.40
2022-10-01T12:06:34.031Z,10.80
2022-10-01T12:09:23.581Z,10.35
2022-10-01T12:12:17.301Z,9.75
2022-10-01T12:15:00.681Z,9.10
2022-10-01T12:17:51.546Z,9.25
2022-10-01T12:20:41.401Z,9.27
2022-10-01T12:23:18.770Z,8.82
2022-10-01T12:26:27.390Z,8.80
2022-10-01T12:29:07.152Z,9.52
2022-10-01T12:31:51.583Z,9.23
2022-10-01T12:34:49.400Z,8.73
2022-10-01T12:37:50.207Z,7.90
2022-10-01T12:40:30.648Z,7.40
2022-10-01T12:43:35.905Z,8.48
2022-10-01T12:49:22.437Z,7.00
2022-10-01T12:51:59.255Z,6.82
2022-10-01T12:54:45.843Z,7.18
2022-10-01T12:57:36.853Z,6.57
2022-10-01T13:00:13.569Z,6.57
2022-10-01T13:02:58.700Z,5.90
2022-10-01T13:05:43.264Z,6.10
2022-10-01T13:10:57.463Z,5.50
2022-10-01T13:13:33.521Z,5.70
2022-10-01T13:16:19.063Z,6.20
2022-10-01T13:19:04.926Z,5.30
2022-10-01T13:21:45.818Z,5.93
2022-10-01T13:24:19.804Z,5.97
2022-10-01T13:26:54.149Z,7.38
2022-10-01T13:31:58.699Z,6.82
2022-10-01T13:34:40.585Z,7.40
2022-10-01T13:37:35.545Z,6.07
2022-10-01T13:42:44.762Z,6.50
2022-10-01T13:45:29.397Z,6.07
2022-10-01T13:48:10.424Z,5.25
2022-10-01T13:50:57.657Z,5.15
2022-10-01T13:53:27.578Z,5.45
2022-10-01T13:55:56.984Z,6.05
2022-10-01T13:58:30.476Z,5.63
2022-10-01T14:01:02.102Z,5.60
2022-10-01T14:03:43.208Z,5.40
2022-10-01T14:06:24.541Z,6.13
2022-10-01T14:09:18.414Z,6.40
2022-10-01T14:12:09.471Z,6.40
2022-10-01T14:15:12.705Z,6.28
2022-10-01T14:17:43.809Z,6.78
2022-10-01T14:20:23.994Z,7.72
2022-10-01T14:23:10.917Z,6.90
2022-10-01T14:25:51.418Z,7.35
2022-10-01T14:28:39.604Z,7.78
2022-10-01T14:31:22.235Z,7.20
2022-10-01T14:34:28.373Z,7.97
2022-10-01T14:36:57.028Z,7.60
2022-10-01T14:39:31.377Z,7.78
2022-10-01T14:41:59.210Z,7.82
2022-10-01T14:44:29.071Z,8.60
2022-10-01T14:46:59.090Z,8.55
2022-10-01T14:49:32.424Z,9.65
2022-10-01T14:52:03.807Z,9.82
2022-10-01T14:54:56.736Z,9.82
2022-10-01T14:57:38.221Z,10.98
2022-10-01T15:00:15.720Z,10.73
2022-10-01T15:02:47.910Z,11.00
2022-10-01T15:05:27.014Z,11.82
2022-10-01T15:07:59.711Z,10.85
2022-10-01T15:10:28.611Z,14.85
2022-10-01T15:12:57.596Z,13.30
2022-10-01T15:15:41.708Z,11.65
2022-10-01T15:21:06.779Z,11.55
2022-10-01T15:23:39.452Z,12.60
2022-10-01T15:26:11.347Z,11.30
2022-10-01T15:28:39.289Z,12.05
2022-10-01T15:31:07.861Z,12.20
2022-10-01T15:33:40.991Z,12.85
2022-10-01T15:36:15.873Z,13.13
2022-10-01T15:38:48.911Z,14.35
2022-10-01T15:41:31.848Z,15.10
2022-10-01T15:44:03.373Z,15.05
2022-10-01T15:46:35.095Z,14.55
2022-10-01T15:49:24.658Z,13.23
2022-10-01T15:52:21.277Z,13.43
2022-10-01T15:54:57.548Z,13.68
2022-10-01T15:57:25.921Z,13.40
2022-10-01T15:59:56.141Z,13.57
2022-10-01T16:02:27.392Z,14.70
2022-10-01T16:05:05.146Z,14.65
2022-10-01T16:07:36.350Z,14.85
2022-10-01T16:10:35.890Z,15.40
2022-10-01T16:13:41.145Z,15.20
2022-10-01T16:16:15.228Z,16.15
2022-10-01T16:18:43.540Z,16.85
2022-10-01T16:21:12.155Z,15.68
2022-10-01T16:23:44.526Z,20.00
2022-10-01T16:26:32.389Z,19.55
2022-10-01T16:29:27.087Z,19.77
2022-10-01T16:31:56.905Z,23.45
2022-10-01T16:34:27.593Z,23.27
2022-10-01T16:36:55.432Z,21.70
2022-10-01T16:39:24.616Z,22.42
2022-10-01T16:42:06.598Z,22.83
2022-10-01T16:44:41.523Z,22.33
2022-10-01T16:47:12.055Z,22.55
2022-10-01T16:49:39.819Z,23.17
2022-10-01T16:52:08.301Z,22.90
2022-10-01T16:54:36.038Z,23.10
2022-10-01T16:57:03.831Z,23.60
2022-10-01T16:59:33.860Z,25.55
2022-10-01T17:02:02.320Z,33.60
2022-10-01T17:04:33.969Z,30.85
2022-10-01T17:07:02.313Z,29.25
2022-10-01T17:09:30.193Z,28.63
2022-10-01T17:11:58.404Z,27.50
2022-10-01T17:14:26.252Z,27.65
2022-10-01T17:16:54.076Z,28.13
2022-10-01T17:19:22.094Z,27.70
2022-10-01T17:21:50.089Z,27.50
2022-10-01T17:24:18.076Z,29.10
2022-10-01T17:26:45.822Z,32.50
2022-10-01T17:29:13.997Z,31.98
2022-10-01T17:31:44.824Z,31.30
2022-10-01T17:34:13.253Z,31.23
2022-10-01T17:36:41.229Z,31.20
2022-10-01T17:39:08.964Z,32.72
2022-10-01T17:41:36.731Z,32.15
2022-10-01T17:44:04.772Z,32.30
2022-10-01T17:46:33.160Z,32.03
2022-10-01T17:49:01.049Z,31.42
2022-10-01T17:51:28.956Z,31.00
2022-10-01T17:53:57.026Z,30.65
2022-10-01T17:56:24.910Z,31.35
2022-10-01T17:58:54.752Z,33.50
2022-10-01T18:01:22.831Z,32.70
2022-10-01T18:03:55.799Z,32.15
2022-10-01T18:06:24.817Z,30.02
2022-10-01T18:08:56.669Z,31.02
2022-10-01T18:11:28.224Z,33.10
2022-10-01T18:13:56.157Z,34.08
2022-10-01T18:16:24.371Z,33.10
2022-10-01T18:21:44.947Z,33.85
2022-10-01T18:24:12.970Z,34.33
2022-10-01T18:26:41.040Z,34.63
2022-10-01T18:29:11.529Z,36.67
2022-10-01T18:31:41.108Z,35.75
2022-10-01T18:34:43.452Z,35.88
2022-10-01T18:37:52.736Z,35.00
2022-10-01T18:40:25.100Z,37.22
2022-10-01T18:43:17.774Z,38.17
2022-10-01T18:46:09.414Z,39.95
2022-10-01T18:49:00.502Z,40.13
2022-10-01T18:51:41.929Z,40.03
2022-10-01T18:54:54.800Z,44.10
2022-10-01T18:57:25.232Z,44.55
2022-10-01T19:00:02.317Z,48.42
2022-10-01T19:02:53.476Z,47.17
2022-10-01T19:05:47.469Z,46.10
2022-10-01T19:08:33.750Z,44.50
2022-10-01T19:11:17.982Z,46.63
2022-10-01T19:14:05.234Z,47.83
2022-10-01T19:17:11.190Z,45.80
2022-10-01T19:20:00.527Z,45.10
2022-10-01T19:22:52.552Z,43.38
2022-10-01T19:25:37.679Z,43.15
2022-10-01T19:28:24.051Z,42.67
2022-10-01T19:31:08.823Z,43.92
2022-10-01T19:33:47.087Z,44.33
2022-10-01T19:36:27.749Z,42.00
2022-10-01T19:39:01.123Z,43.25
2022-10-01T19:41:39.057Z,42.83
2022-10-01T19:44:24.081Z,46.33
2022-10-01T19:46:56.023Z,46.60
2022-10-01T19:49:27.514Z,45.28
2022-10-01T19:51:59.273Z,43.78
2022-10-01T19:54:36.514Z,45.03
2022-10-01T19:57:18.152Z,45.50
2022-10-01T19:59:47.366Z,43.70
2022-10-01T20:02:26.002Z,45.15
2022-10-01T20:05:09.379Z,42.90
2022-10-01T20:08:24.975Z,42.90
2022-10-01T20:11:12.471Z,47.92
2022-10-01T20:14:01.121Z,48.17
2022-10-01T20:16:47.310Z,47.03
2022-10-01T20:19:37.656Z,46.83
2022-10-01T20:22:20.477Z,48.28
2022-10-01T20:25:15.653Z,54.40
2022-10-01T20:27:52.714Z,54.25
2022-10-01T20:30:22.089Z,55.90
2022-10-01T20:33:08.131Z,50.85
2022-10-01T20:36:01.554Z,49.42
2022-10-01T20:38:42.165Z,48.53
2022-10-01T20:41:19.996Z,47.58
2022-10-01T20:43:57.509Z,44.65
2022-10-01T20:46:36.524Z,46.10
2022-10-01T20:49:30.827Z,41.70
2022-10-01T20:52:34.320Z,42.30
2022-10-01T20:55:13.257Z,39.95
2022-10-01T20:57:53.299Z,39.88
2022-10-01T21:00:24.498Z,38.10
2022-10-01T21:03:17.953Z,40.03
2022-10-01T21:06:03.594Z,39.60
2022-10-01T21:08:40.803Z,38.83
2022-10-01T21:11:30.813Z,40.65
2022-10-01T21:14:15.934Z,40.92
2022-10-01T21:17:02.434Z,39.30
2022-10-01T21:19:38.253Z,41.25
2022-10-01T21:22:25.507Z,40.67
2022-10-01T21:25:17.554Z,41.00
2022-10-01T21:28:18.732Z,41.00
2022-10-01T21:30:55.611Z,41.78
2022-10-01T21:33:32.616Z,40.80
2022-10-01T21:36:10.797Z,40.38
2022-10-01T21:38:58.767Z,39.97
2022-10-01T21:41:49.222Z,40.67
2022-10-01T21:44:47.293Z,42.00
2022-10-01T21:47:41.280Z,41.17
2022-10-01T21:50:46.739Z,40.15
2022-10-01T21:53:28.956Z,40.83
2022-10-01T21:56:08.120Z,41.80
2022-10-01T21:58:50.528Z,42.75
2022-10-01T22:02:03.399Z,42.80
2022-10-01T22:04:40.435Z,42.30
2022-10-01T22:07:17.492Z,39.72
2022-10-01T22:10:18.769Z,37.42
2022-10-01T22:12:55.033Z,37.88
2022-10-01T22:15:43.637Z,35.90
2022-10-01T22:18:18.257Z,34.03
2022-10-01T22:20:46.896Z,35.20
2022-10-01T22:23:18.385Z,32.70
2022-10-01T22:26:00.347Z,32.97
2022-10-01T22:28:37.717Z,32.20
2022-10-01T22:31:10.805Z,32.22
2022-10-01T22:33:52.786Z,32.75
2022-10-01T22:36:54.370Z,32.60
2022-10-01T22:39:29.478Z,34.67
2022-10-01T22:42:21.464Z,32.45
2022-10-01T22:44:49.328Z,30.85
2022-10-01T22:47:34.701Z,32.13
2022-10-01T22:50:26.889Z,31.65
2022-10-01T22:53:07.951Z,31.38
2022-10-01T22:55:47.876Z,28.35
2022-10-01T22:59:02.687Z,30.20
2022-10-01T23:02:50.240Z,30.25
2022-10-01T23:05:39.149Z,29.92
2022-10-01T23:08:18.328Z,29.65
2022-10-01T23:11:29.101Z,29.58
2022-10-01T23:14:14.871Z,28.13
2022-10-01T23:16:48.097Z,29.65
2022-10-01T23:19:40.308Z,29.38
2022-10-01T23:22:28.615Z,30.45
2022-10-01T23:25:10.242Z,30.15
2022-10-01T23:27:59.124Z,29.38
2022-10-01T23:30:50.747Z,30.83
2022-10-01T23:33:49.623Z,31.45
2022-10-01T23:36:34.050Z,31.40
2022-10-01T23:42:07.403Z,29.05
2022-10-01T23:44:50.187Z,29.98
2022-10-01T23:47:30.537Z,27.10
2022-10-01T23:50:02.086Z,26.27
2022-10-01T23:52:47.365Z,26.05
2022-10-01T23:56:07.864Z,24.08
2022-10-01T23:58:50.742Z,20.15
